createdAt,value
2018-11-05T00:00:43.236Z,14.30
2018-11-05T00:03:11.824Z,13.93
2018-11-05T00:05:40.422Z,12.80
2018-11-05T00:08:08.951Z,14.00
2018-11-05T00:10:37.715Z,13.83
2018-11-05T00:13:06.292Z,14.97
2018-11-05T00:15:34.844Z,13.90
2018-11-05T00:18:03.438Z,14.23
2018-11-05T00:20:31.945Z,13.80
2018-11-05T00:23:00.500Z,15.37
2018-11-05T00:25:29.060Z,14.07
2018-11-05T00:27:57.607Z,14.13
2018-11-05T00:30:26.190Z,13.83
2018-11-05T00:32:54.713Z,13.97
2018-11-05T00:35:23.355Z,15.37
2018-11-05T00:37:51.919Z,14.73
2018-11-05T00:40:20.464Z,15.07
2018-11-05T00:42:49.009Z,14.53
2018-11-05T00:45:17.551Z,14.60
2018-11-05T00:47:46.094Z,14.47
2018-11-05T00:50:15.961Z,15.57
2018-11-05T00:52:44.561Z,15.50
2018-11-05T00:55:13.650Z,15.53
2018-11-05T00:57:42.230Z,14.80
2018-11-05T01:00:14.578Z,15.10
2018-11-05T01:02:43.382Z,15.63
2018-11-05T01:05:13.404Z,15.13
2018-11-05T01:07:42.906Z,16.50
2018-11-05T01:10:12.937Z,15.77
2018-11-05T01:12:41.716Z,16.43
2018-11-05T01:15:12.463Z,15.90
2018-11-05T01:17:41.061Z,15.73
2018-11-05T01:20:11.059Z,15.27
2018-11-05T01:22:40.290Z,16.33
2018-11-05T01:25:08.929Z,16.07
2018-11-05T01:27:37.447Z,15.13
2018-11-05T01:30:08.088Z,16.13
2018-11-05T01:32:36.679Z,15.17
2018-11-05T01:35:06.430Z,17.37
2018-11-05T01:37:34.946Z,17.20
2018-11-05T01:40:03.966Z,16.50
2018-11-05T01:42:32.524Z,17.37
2018-11-05T01:45:01.084Z,18.43
2018-11-05T01:47:29.651Z,18.70
2018-11-05T01:49:58.181Z,17.20
2018-11-05T01:52:26.687Z,17.57
2018-11-05T01:54:55.206Z,18.90
2018-11-05T01:57:23.754Z,18.87
2018-11-05T01:59:52.272Z,17.27
2018-11-05T02:02:20.905Z,16.47
2018-11-05T02:04:49.435Z,18.57
2018-11-05T02:07:17.963Z,18.93
2018-11-05T02:09:46.510Z,18.07
2018-11-05T02:12:15.051Z,18.53
2018-11-05T02:14:43.589Z,18.73
2018-11-05T02:17:12.188Z,19.17
2018-11-05T02:19:42.358Z,19.33
2018-11-05T02:22:11.264Z,19.80
2018-11-05T02:24:40.309Z,19.27
2018-11-05T02:27:08.897Z,18.57
2018-11-05T02:29:37.451Z,20.70
2018-11-05T02:32:06.168Z,19.43
2018-11-05T02:34:34.703Z,19.30
2018-11-05T02:37:03.217Z,19.83
2018-11-05T02:39:31.740Z,19.63
2018-11-05T02:42:00.305Z,18.57
2018-11-05T02:44:28.843Z,19.63
2018-11-05T02:46:57.375Z,19.97
2018-11-05T02:49:25.899Z,19.77
2018-11-05T02:51:54.459Z,20.33
2018-11-05T02:54:22.991Z,20.17
2018-11-05T02:56:51.602Z,19.73
2018-11-05T02:59:20.167Z,20.13
2018-11-05T03:01:48.873Z,20.70
2018-11-05T03:04:17.440Z,20.43
2018-11-05T03:06:45.964Z,20.80
2018-11-05T03:09:14.470Z,21.13
2018-11-05T03:11:42.992Z,21.27
2018-11-05T03:14:11.554Z,20.60
2018-11-05T03:16:40.101Z,21.37
2018-11-05T03:19:08.644Z,20.60
2018-11-05T03:21:37.238Z,21.07
2018-11-05T03:24:06.136Z,22.30
2018-11-05T03:26:34.678Z,21.47
2018-11-05T03:29:03.230Z,19.83
2018-11-05T03:31:31.835Z,21.27
2018-11-05T03:34:00.360Z,19.07
2018-11-05T03:36:28.934Z,20.97
2018-11-05T03:38:57.504Z,19.67
2018-11-05T03:41:26.046Z,20.17
2018-11-05T03:43:54.602Z,21.23
2018-11-05T03:46:23.159Z,19.90
2018-11-05T03:48:51.662Z,20.50
2018-11-05T03:51:20.306Z,20.03
2018-11-05T03:53:49.306Z,20.83
2018-11-05T03:56:18.139Z,20.67
2018-11-05T03:58:46.451Z,20.90
2018-11-05T04:01:14.987Z,19.63
2018-11-05T04:03:43.514Z,19.77
2018-11-05T04:06:12.055Z,20.90
2018-11-05T04:08:40.618Z,20.10
2018-11-05T04:11:09.156Z,21.07
2018-11-05T04:13:37.699Z,20.70
2018-11-05T04:16:06.317Z,20.10
2018-11-05T04:18:34.859Z,21.07
2018-11-05T04:21:03.563Z,20.93
2018-11-05T04:23:32.082Z,20.33
2018-11-05T04:26:00.608Z,21.73
2018-11-05T04:28:29.209Z,21.43
2018-11-05T04:30:57.762Z,20.37
2018-11-05T04:33:26.276Z,21.50
2018-11-05T04:35:54.862Z,20.23
2018-11-05T04:38:23.616Z,21.57
2018-11-05T04:40:52.179Z,22.07
2018-11-05T04:43:20.737Z,20.87
2018-11-05T04:45:50.894Z,21.63
2018-11-05T04:48:19.554Z,22.20
2018-11-05T04:50:48.146Z,22.23
2018-11-05T04:53:16.667Z,22.20
2018-11-05T04:55:45.204Z,23.13
2018-11-05T04:58:13.740Z,21.87
2018-11-05T05:00:42.266Z,23.70
2018-11-05T05:03:10.903Z,22.03
2018-11-05T05:05:39.419Z,23.07
2018-11-05T05:08:07.929Z,22.87
2018-11-05T05:10:36.467Z,22.40
2018-11-05T05:13:05.514Z,22.90
2018-11-05T05:15:34.076Z,22.27
2018-11-05T05:18:02.618Z,22.57
2018-11-05T05:20:31.167Z,22.03
2018-11-05T05:22:59.857Z,22.27
2018-11-05T05:25:28.310Z,23.17
2018-11-05T05:27:56.843Z,22.63
2018-11-05T05:30:25.382Z,21.43
2018-11-05T05:32:53.984Z,23.17
2018-11-05T05:35:22.640Z,23.53
2018-11-05T05:37:51.192Z,21.10
2018-11-05T05:40:26.343Z,22.90
2018-11-05T05:42:54.919Z,22.33
2018-11-05T05:45:23.495Z,22.57
2018-11-05T05:47:52.172Z,22.13
2018-11-05T05:50:20.874Z,22.07
2018-11-05T05:52:50.054Z,22.17
2018-11-05T05:55:18.595Z,21.33
2018-11-05T05:57:47.169Z,21.70
2018-11-05T06:00:22.464Z,20.87
2018-11-05T06:02:51.156Z,21.27
2018-11-05T06:05:19.781Z,22.70
2018-11-05T06:07:49.281Z,19.60
2018-11-05T06:10:17.975Z,20.93
2018-11-05T06:12:46.865Z,20.97
2018-11-05T06:15:16.580Z,21.00
2018-11-05T06:17:45.162Z,21.10
2018-11-05T06:20:15.956Z,20.83
2018-11-05T06:22:45.302Z,19.03
2018-11-05T06:25:14.087Z,18.80
2018-11-05T06:27:42.624Z,19.10
2018-11-05T06:30:15.111Z,18.13
2018-11-05T06:32:44.620Z,17.43
2018-11-05T06:35:13.181Z,17.27
2018-11-05T06:37:42.137Z,18.20
2018-11-05T06:40:13.084Z,17.40
2018-11-05T06:42:42.282Z,16.93
2018-11-05T06:45:12.929Z,16.33
2018-11-05T06:47:42.610Z,15.40
2018-11-05T06:50:15.460Z,16.50
2018-11-05T06:52:44.666Z,16.60
2018-11-05T06:55:14.104Z,15.93
2018-11-05T06:57:42.779Z,16.10
2018-11-05T07:00:15.684Z,15.90
2018-11-05T07:02:44.521Z,15.53
2018-11-05T07:05:13.472Z,15.10
2018-11-05T07:07:42.092Z,15.10
2018-11-05T07:10:12.016Z,15.13
2018-11-05T07:12:41.450Z,14.30
2018-11-05T07:15:12.206Z,14.20
2018-11-05T07:17:41.023Z,14.20
2018-11-05T07:20:12.073Z,14.40
2018-11-05T07:22:40.869Z,14.13
2018-11-05T07:25:11.208Z,13.17
2018-11-05T07:27:39.786Z,14.90
2018-11-05T07:30:15.608Z,13.90
2018-11-05T07:32:44.861Z,11.83
2018-11-05T07:35:14.518Z,12.07
2018-11-05T07:37:43.385Z,12.73
2018-11-05T07:40:14.058Z,12.53
2018-11-05T07:42:42.631Z,11.80
2018-11-05T07:45:17.908Z,12.13
2018-11-05T07:47:47.001Z,12.57
2018-11-05T07:50:16.817Z,12.43
2018-11-05T07:52:45.395Z,11.93
2018-11-05T07:55:15.289Z,12.10
2018-11-05T07:57:44.984Z,11.30
2018-11-05T08:00:20.096Z,11.87
2018-11-05T08:02:50.000Z,11.50
2018-11-05T08:05:19.832Z,11.60
2018-11-05T08:07:48.742Z,12.07
2018-11-05T08:10:17.628Z,12.10
2018-11-05T08:12:46.410Z,11.60
2018-11-05T08:15:16.439Z,11.57
2018-11-05T08:17:46.292Z,10.77
2018-11-05T08:20:15.110Z,10.67
2018-11-05T08:22:43.686Z,10.93
2018-11-05T08:25:13.107Z,11.27
2018-11-05T08:27:41.654Z,10.80
2018-11-05T08:30:15.229Z,10.50
2018-11-05T08:32:43.838Z,10.90
2018-11-05T08:35:13.227Z,11.00
2018-11-05T08:37:42.916Z,10.43
2018-11-05T08:40:14.932Z,10.37
2018-11-05T08:42:44.316Z,10.27
2018-11-05T08:45:14.179Z,10.10
2018-11-05T08:47:42.972Z,10.17
2018-11-05T08:50:13.540Z,9.77
2018-11-05T08:52:42.042Z,9.33
2018-11-05T08:55:13.174Z,9.53
2018-11-05T08:57:42.507Z,9.70
2018-11-05T09:00:20.341Z,10.20
2018-11-05T09:02:49.691Z,10.03
2018-11-05T09:05:18.567Z,9.37
2018-11-05T09:07:47.752Z,8.90
2018-11-05T09:10:16.519Z,9.87
2018-11-05T09:12:44.987Z,9.67
2018-11-05T09:15:15.954Z,9.43
2018-11-05T09:17:45.354Z,9.33
2018-11-05T09:20:15.255Z,9.60
2018-11-05T09:22:43.916Z,10.17
2018-11-05T09:25:13.359Z,9.47
2018-11-05T09:27:41.934Z,10.27
2018-11-05T09:30:16.855Z,10.33
2018-11-05T09:32:46.173Z,11.00
2018-11-05T09:35:15.071Z,10.33
2018-11-05T09:37:43.800Z,10.57
2018-11-05T09:40:15.023Z,10.23
2018-11-05T09:42:44.506Z,11.10
2018-11-05T09:45:15.785Z,11.10
2018-11-05T09:47:45.299Z,11.37
2018-11-05T09:50:14.307Z,11.37
2018-11-05T09:52:42.858Z,11.80
2018-11-05T09:55:12.456Z,10.87
2018-11-05T09:57:41.446Z,11.80
2018-11-05T10:00:13.608Z,11.67
2018-11-05T10:02:47.624Z,11.40
2018-11-05T10:05:16.696Z,11.27
2018-11-05T10:07:46.585Z,11.13
2018-11-05T10:10:16.112Z,10.37
2018-11-05T10:12:44.872Z,11.77
2018-11-05T10:15:14.555Z,10.93
2018-11-05T10:17:43.130Z,10.80
2018-11-05T10:20:16.486Z,11.33
2018-11-05T10:22:45.565Z,11.03
2018-11-05T10:25:14.658Z,11.07
2018-11-05T10:27:43.124Z,10.60
2018-11-05T10:30:19.840Z,11.13
2018-11-05T10:32:48.447Z,10.30
2018-11-05T10:35:17.554Z,9.93
2018-11-05T10:38:03.614Z,10.20
2018-11-05T10:40:32.371Z,9.80
2018-11-05T10:43:00.967Z,10.70
2018-11-05T10:45:29.503Z,9.97
2018-11-05T10:47:58.051Z,10.27
2018-11-05T10:50:26.690Z,11.17
2018-11-05T10:52:55.218Z,10.40
2018-11-05T10:55:23.782Z,10.73
2018-11-05T10:57:52.762Z,10.13
2018-11-05T11:00:27.326Z,10.30
2018-11-05T11:03:01.202Z,10.40
2018-11-05T11:05:30.779Z,11.10
2018-11-05T11:08:00.397Z,10.50
2018-11-05T11:10:29.915Z,11.13
2018-11-05T11:12:58.887Z,11.90
2018-11-05T11:15:27.625Z,13.13
2018-11-05T11:17:56.742Z,14.10
2018-11-05T11:20:25.363Z,15.30
2018-11-05T11:22:53.900Z,16.07
2018-11-05T11:25:22.473Z,16.67
2018-11-05T11:27:51.862Z,18.13
2018-11-05T11:30:20.394Z,18.87
2018-11-05T11:32:49.714Z,19.73
2018-11-05T11:35:18.291Z,20.33
2018-11-05T11:37:46.909Z,21.80
2018-11-05T11:40:17.735Z,21.80
2018-11-05T11:42:47.515Z,22.30
2018-11-05T11:45:17.145Z,21.83
2018-11-05T11:47:45.727Z,22.60
2018-11-05T11:50:15.539Z,22.17
2018-11-05T11:52:44.108Z,22.40
2018-11-05T11:55:14.756Z,22.97
2018-11-05T11:57:46.688Z,23.20
2018-11-05T12:00:17.590Z,23.13
2018-11-05T12:02:46.790Z,22.60
2018-11-05T12:05:15.771Z,22.03
2018-11-05T12:07:44.300Z,23.70
2018-11-05T12:10:18.774Z,22.93
2018-11-05T12:12:47.516Z,22.67
2018-11-05T12:15:17.154Z,23.10
2018-11-05T12:17:46.846Z,22.37
2018-11-05T12:20:16.917Z,22.50
2018-11-05T12:22:46.385Z,23.63
2018-11-05T12:25:14.958Z,23.80
2018-11-05T12:27:43.555Z,22.63
2018-11-05T12:30:18.331Z,22.83
2018-11-05T12:32:48.177Z,22.47
2018-11-05T12:35:16.782Z,23.83
2018-11-05T12:37:46.497Z,22.30
2018-11-05T12:40:16.359Z,23.57
2018-11-05T12:42:46.004Z,24.57
2018-11-05T12:45:14.612Z,25.13
2018-11-05T12:47:43.188Z,23.17
2018-11-05T12:50:17.295Z,24.13
2018-11-05T12:52:46.842Z,25.37
2018-11-05T12:55:15.420Z,24.40
2018-11-05T12:57:44.179Z,24.90
2018-11-05T13:00:15.444Z,25.00
2018-11-05T13:02:44.223Z,25.63
2018-11-05T13:05:13.724Z,26.27
2018-11-05T13:07:42.292Z,26.00
2018-11-05T13:10:12.766Z,27.47
2018-11-05T13:12:41.447Z,26.77
2018-11-05T13:15:10.879Z,27.37
2018-11-05T13:17:40.331Z,26.30
2018-11-05T13:20:11.919Z,27.87
2018-11-05T13:22:40.938Z,27.47
2018-11-05T13:25:09.567Z,28.07
2018-11-05T13:27:38.106Z,27.37
2018-11-05T13:30:08.164Z,28.50
2018-11-05T13:32:36.980Z,29.00
2018-11-05T13:35:07.255Z,27.90
2018-11-05T13:37:36.140Z,29.10
2018-11-05T13:40:04.648Z,28.80
2018-11-05T13:42:33.339Z,28.37
2018-11-05T13:45:02.041Z,29.37
2018-11-05T13:47:31.258Z,30.00
2018-11-05T13:49:59.464Z,28.50
2018-11-05T13:52:27.955Z,29.60
2018-11-05T13:54:56.712Z,28.60
2018-11-05T13:57:25.076Z,29.60
2018-11-05T13:59:54.616Z,28.13
2018-11-05T14:02:23.173Z,29.63
2018-11-05T14:04:51.839Z,28.97
2018-11-05T14:07:20.394Z,28.37
2018-11-05T14:09:49.044Z,29.03
2018-11-05T14:12:17.599Z,28.53
2018-11-05T14:14:46.172Z,29.10
2018-11-05T14:17:14.731Z,30.13
2018-11-05T14:19:43.314Z,29.47
2018-11-05T14:22:11.864Z,29.10
2018-11-05T14:24:40.455Z,29.33
2018-11-05T14:27:09.044Z,30.27
2018-11-05T14:29:37.959Z,30.17
2018-11-05T14:32:06.569Z,30.57
2018-11-05T14:34:35.107Z,30.63
2018-11-05T14:37:03.700Z,30.50
2018-11-05T14:39:32.268Z,30.93
2018-11-05T14:42:00.892Z,30.03
2018-11-05T14:44:29.460Z,30.73
2018-11-05T14:46:58.013Z,30.23
2018-11-05T14:49:26.625Z,28.77
2018-11-05T14:51:55.480Z,30.20
2018-11-05T14:54:24.113Z,30.30
2018-11-05T14:56:52.697Z,31.40
2018-11-05T14:59:21.383Z,30.53
2018-11-05T15:01:54.231Z,30.47
2018-11-05T15:04:22.801Z,30.90
2018-11-05T15:06:51.359Z,29.97
2018-11-05T15:09:19.943Z,28.90
2018-11-05T15:11:48.488Z,31.37
2018-11-05T15:14:17.068Z,30.97
2018-11-05T15:16:45.675Z,31.40
2018-11-05T15:19:14.574Z,31.97
2018-11-05T15:21:42.960Z,32.67
2018-11-05T15:24:11.549Z,31.27
2018-11-05T15:26:40.247Z,31.30
2018-11-05T15:29:08.717Z,30.97
2018-11-05T15:31:37.347Z,33.23
2018-11-05T15:34:05.929Z,32.80
2018-11-05T15:36:34.474Z,32.50
2018-11-05T15:39:04.288Z,32.27
2018-11-05T15:41:32.828Z,32.87
2018-11-05T15:44:01.405Z,31.97
2018-11-05T15:46:29.981Z,34.03
2018-11-05T15:48:58.537Z,33.40
2018-11-05T15:51:27.403Z,33.67
2018-11-05T15:53:56.285Z,32.60
2018-11-05T15:56:24.757Z,34.03
2018-11-05T15:58:53.310Z,33.83
2018-11-05T16:01:21.924Z,32.73
2018-11-05T16:03:50.484Z,32.90
2018-11-05T16:06:19.180Z,33.70
2018-11-05T16:08:47.707Z,33.67
2018-11-05T16:11:16.311Z,33.37
2018-11-05T16:13:45.019Z,32.73
2018-11-05T16:16:13.878Z,32.40
2018-11-05T16:18:42.472Z,32.67
2018-11-05T16:21:11.031Z,33.33
2018-11-05T16:23:39.623Z,33.60
2018-11-05T16:26:08.183Z,34.57
2018-11-05T16:28:36.771Z,34.60
2018-11-05T16:31:05.898Z,33.10
2018-11-05T16:33:34.467Z,34.03
2018-11-05T16:36:03.011Z,33.97
2018-11-05T16:38:31.731Z,34.40
2018-11-05T16:41:00.241Z,34.80
2018-11-05T16:43:28.784Z,34.13
2018-11-05T16:45:57.340Z,34.00
2018-11-05T16:48:26.136Z,34.93
2018-11-05T16:50:54.757Z,35.20
2018-11-05T16:53:23.413Z,34.77
2018-11-05T16:55:51.995Z,34.50
2018-11-05T16:58:20.569Z,33.80
2018-11-05T17:00:49.283Z,34.07
2018-11-05T17:03:17.753Z,34.60
2018-11-05T17:05:46.419Z,35.03
2018-11-05T17:08:15.172Z,34.80
2018-11-05T17:10:43.719Z,34.27
2018-11-05T17:13:12.389Z,34.67
2018-11-05T17:15:40.951Z,34.07
2018-11-05T17:18:09.576Z,33.80
2018-11-05T17:20:38.188Z,33.13
2018-11-05T17:23:06.791Z,34.63
2018-11-05T17:25:35.360Z,34.50
2018-11-05T17:28:03.909Z,34.30
2018-11-05T17:30:32.555Z,35.33
2018-11-05T17:33:01.179Z,33.07
2018-11-05T17:35:29.831Z,34.03
2018-11-05T17:37:58.415Z,34.13
2018-11-05T17:40:27.003Z,32.60
2018-11-05T17:42:55.568Z,34.57
2018-11-05T17:45:24.140Z,33.90
2018-11-05T17:47:52.973Z,33.40
2018-11-05T17:50:22.449Z,32.70
2018-11-05T17:52:51.144Z,34.73
2018-11-05T17:55:19.835Z,33.30
2018-11-05T17:57:49.016Z,34.90
2018-11-05T18:00:19.089Z,34.37
2018-11-05T18:02:47.828Z,33.30
2018-11-05T18:05:16.496Z,32.27
2018-11-05T18:07:45.398Z,33.97
2018-11-05T18:10:14.892Z,34.20
2018-11-05T18:12:43.450Z,33.93
2018-11-05T18:15:12.694Z,33.23
2018-11-05T18:17:42.128Z,33.07
2018-11-05T18:20:12.334Z,33.90
2018-11-05T18:22:41.036Z,34.17
2018-11-05T18:25:14.462Z,33.63
2018-11-05T18:27:43.399Z,33.90
2018-11-05T18:30:12.710Z,33.77
2018-11-05T18:32:41.507Z,34.93
2018-11-05T18:35:11.761Z,34.30
2018-11-05T18:37:41.034Z,33.40
2018-11-05T18:40:12.634Z,33.50
2018-11-05T18:42:41.820Z,34.13
2018-11-05T18:45:10.906Z,33.43
2018-11-05T18:47:39.520Z,34.70
2018-11-05T18:50:09.726Z,35.27
2018-11-05T18:52:38.330Z,34.87
2018-11-05T18:55:08.317Z,35.00
2018-11-05T18:57:37.324Z,34.93
2018-11-05T19:00:17.807Z,36.00
2018-11-05T19:02:46.515Z,35.10
2018-11-05T19:05:15.235Z,34.70
2018-11-05T19:07:43.950Z,35.57
2018-11-05T19:10:12.684Z,35.13
2018-11-05T19:12:41.210Z,35.00
2018-11-05T19:15:11.097Z,34.60
2018-11-05T19:17:39.659Z,36.43
2018-11-05T19:20:08.954Z,34.87
2018-11-05T19:22:38.150Z,35.77
2018-11-05T19:25:08.109Z,34.83
2018-11-05T19:27:37.929Z,35.73
2018-11-05T19:30:09.591Z,35.27
2018-11-05T19:32:38.211Z,35.57
2018-11-05T19:35:07.785Z,34.53
2018-11-05T19:37:36.371Z,34.30
2018-11-05T19:40:05.886Z,36.17
2018-11-05T19:42:34.645Z,35.77
2018-11-05T19:45:03.348Z,35.03
2018-11-05T19:47:31.911Z,37.17
2018-11-05T19:50:00.630Z,36.00
2018-11-05T19:52:29.243Z,34.47
2018-11-05T19:54:57.798Z,36.27
2018-11-05T19:57:26.373Z,34.80
2018-11-05T19:59:55.208Z,36.77
2018-11-05T20:02:28.074Z,36.33
2018-11-05T20:04:56.669Z,36.77
2018-11-05T20:07:25.363Z,35.73
2018-11-05T20:09:54.229Z,36.27
2018-11-05T20:12:22.799Z,36.33
2018-11-05T20:14:51.408Z,36.80
2018-11-05T20:17:20.005Z,36.87
2018-11-05T20:19:55.138Z,37.10
2018-11-05T20:22:24.089Z,38.03
2018-11-05T20:24:52.529Z,38.80
2018-11-05T20:27:21.180Z,36.70
2018-11-05T20:29:49.756Z,36.97
2018-11-05T20:32:18.794Z,38.03
2018-11-05T20:34:46.944Z,37.07
2018-11-05T20:37:15.490Z,37.07
2018-11-05T20:39:44.115Z,37.17
2018-11-05T20:42:12.816Z,38.33
2018-11-05T20:44:41.416Z,37.80
2018-11-05T20:47:09.999Z,37.73
2018-11-05T20:49:38.819Z,37.37
2018-11-05T20:52:07.430Z,38.40
2018-11-05T20:54:36.630Z,38.90
2018-11-05T20:57:05.267Z,39.07
2018-11-05T20:59:33.858Z,38.87
2018-11-05T21:02:02.410Z,38.23
2018-11-05T21:04:30.948Z,39.07
2018-11-05T21:06:59.507Z,38.40
2018-11-05T21:09:28.216Z,38.80
2018-11-05T21:11:57.339Z,37.30
2018-11-05T21:14:25.961Z,38.47
2018-11-05T21:16:54.587Z,39.00
2018-11-05T21:19:23.173Z,38.77
2018-11-05T21:21:51.834Z,39.27
2018-11-05T21:24:20.305Z,38.37
2018-11-05T21:26:48.859Z,39.60
2018-11-05T21:29:17.472Z,37.67
2018-11-05T21:31:46.044Z,37.83
2018-11-05T21:34:14.617Z,36.53
2018-11-05T21:36:43.194Z,37.83
2018-11-05T21:39:12.562Z,36.07
2018-11-05T21:41:41.112Z,36.90
2018-11-05T21:44:09.772Z,36.93
2018-11-05T21:46:38.328Z,37.20
2018-11-05T21:49:07.209Z,35.40
2018-11-05T21:51:35.866Z,36.33
2018-11-05T21:54:04.577Z,36.57
2018-11-05T21:56:33.033Z,35.50
2018-11-05T21:59:01.538Z,36.53
2018-11-05T22:01:30.197Z,35.33
2018-11-05T22:03:58.727Z,35.67
2018-11-05T22:06:27.342Z,34.43
2018-11-05T22:08:55.866Z,36.03
2018-11-05T22:11:24.441Z,36.57
2018-11-05T22:13:52.992Z,36.47
2018-11-05T22:16:21.547Z,36.67
2018-11-05T22:18:50.107Z,35.90
2018-11-05T22:21:18.647Z,36.03
2018-11-05T22:23:47.205Z,34.93
2018-11-05T22:26:22.392Z,35.53
2018-11-05T22:28:50.962Z,36.17
2018-11-05T22:31:19.536Z,37.17
2018-11-05T22:33:48.082Z,35.43
2018-11-05T22:36:16.620Z,36.43
2018-11-05T22:38:45.221Z,35.90
2018-11-05T22:41:13.814Z,35.53
2018-11-05T22:43:42.403Z,35.13
2018-11-05T22:46:10.989Z,37.50
2018-11-05T22:48:39.787Z,35.93
2018-11-05T22:51:08.399Z,36.00
2018-11-05T22:53:36.996Z,35.70
2018-11-05T22:56:06.234Z,35.53
2018-11-05T22:58:34.818Z,36.47
2018-11-05T23:01:06.584Z,35.27
2018-11-05T23:03:35.138Z,34.83
2018-11-05T23:06:03.662Z,35.10
2018-11-05T23:08:32.169Z,36.00
2018-11-05T23:11:00.775Z,36.27
2018-11-05T23:13:29.279Z,34.50
2018-11-05T23:15:58.184Z,35.47
2018-11-05T23:18:26.710Z,35.00
2018-11-05T23:20:55.259Z,35.23
2018-11-05T23:23:23.801Z,34.93
2018-11-05T23:25:52.371Z,35.00
2018-11-05T23:28:21.080Z,36.27
2018-11-05T23:30:49.651Z,35.43
2018-11-05T23:33:18.192Z,35.47
2018-11-05T23:35:46.728Z,35.80
2018-11-05T23:38:15.272Z,36.87
2018-11-05T23:40:43.864Z,36.10
2018-11-05T23:43:12.427Z,37.00
2018-11-05T23:45:40.954Z,35.17
2018-11-05T23:48:09.509Z,35.53
2018-11-05T23:50:38.043Z,36.50
2018-11-05T23:53:06.591Z,36.20
2018-11-05T23:55:35.116Z,35.90
2018-11-05T23:58:03.665Z,36.43
